Time;durP1;ratioP1;P1;durP2;ratioP2;P2;SDS_P1;SDS_P2;PMS_P1;PMS_P2;Temp;Humidity;BMP_temperature;BMP_pressure;BME280_temperature;BME280_humidity;BME280_pressure;Samples;Min_cycle;Max_cycle;Signal;HPM_P1;HPM_P2
2021/09/14 00:00:33;;;;;;;6.95;6.22;;;17.30;69.70;;;17.16;54.59;95144.69;5011548;28;20303;-78
2021/09/14 00:03:00;;;;;;;7.18;6.47;;;17.30;69.80;;;17.13;54.45;95130.06;5016242;28;20201;-79
2021/09/14 00:05:29;;;;;;;7.35;6.57;;;17.20;69.80;;;17.12;54.63;95132.94;5012623;28;20219;-79
2021/09/14 00:07:56;;;;;;;6.25;5.65;;;17.30;69.90;;;17.12;54.72;95130.28;5012749;28;20192;-79
2021/09/14 00:10:24;;;;;;;8.82;6.22;;;17.30;69.90;;;17.10;55.10;95129.72;5011122;28;20212;-79
2021/09/14 00:12:51;;;;;;;7.28;6.00;;;17.20;69.90;;;17.09;54.98;95125.47;4998898;28;20196;-79
2021/09/14 00:15:19;;;;;;;8.68;6.45;;;17.20;70.00;;;17.06;54.78;95132.00;4995995;28;20307;-79
2021/09/14 00:17:46;;;;;;;7.20;5.90;;;17.20;70.00;;;17.04;54.98;95130.63;5015046;28;20204;-79
2021/09/14 00:20:13;;;;;;;6.60;5.88;;;17.20;70.10;;;16.99;55.06;95130.50;5023446;28;20197;-79
2021/09/14 00:22:41;;;;;;;7.10;6.40;;;17.20;70.00;;;16.94;55.26;95123.22;5012125;28;20217;-79
2021/09/14 00:25:09;;;;;;;9.18;6.03;;;17.10;70.10;;;16.91;55.11;95128.97;5014619;28;20203;-79
2021/09/14 00:27:36;;;;;;;6.82;6.13;;;17.20;70.20;;;16.86;55.29;95126.97;5015270;28;20189;-79
2021/09/14 00:30:04;;;;;;;6.95;6.32;;;17.10;70.10;;;16.83;55.44;95121.31;5026933;28;20188;-79
2021/09/14 00:32:31;;;;;;;7.50;5.88;;;17.10;70.20;;;16.79;55.39;95127.06;5011987;28;20211;-79
2021/09/14 00:34:59;;;;;;;6.45;5.85;;;17.10;70.10;;;16.76;55.51;95124.88;5028173;28;20231;-79
2021/09/14 00:37:26;;;;;;;6.47;5.88;;;17.10;70.10;;;16.73;55.56;95120.00;5011786;28;20256;-79
2021/09/14 00:39:53;;;;;;;7.13;6.40;;;17.00;70.20;;;16.71;55.93;95116.81;5043500;28;20246;-79
2021/09/14 00:42:20;;;;;;;7.85;6.28;;;16.90;70.40;;;16.76;55.78;95113.44;5031395;28;20584;-79
2021/09/14 00:44:48;;;;;;;6.70;6.07;;;17.00;70.60;;;16.76;55.81;95118.75;5017800;28;20204;-79
2021/09/14 00:47:15;;;;;;;7.13;6.43;;;16.90;70.60;;;16.79;56.05;95115.66;5013955;28;20235;-79
2021/09/14 00:49:43;;;;;;;8.75;7.13;;;16.90;70.70;;;16.79;55.90;95115.66;5013319;28;20232;-78
2021/09/14 00:52:11;;;;;;;8.02;6.72;;;16.90;70.60;;;16.78;55.95;95119.34;5002087;28;20220;-79
2021/09/14 00:54:40;;;;;;;7.00;6.15;;;16.90;70.60;;;16.76;55.66;95113.44;5018735;28;20284;-79
2021/09/14 00:57:08;;;;;;;7.32;6.07;;;16.90;70.60;;;16.74;55.62;95116.34;5011258;28;20236;-79
2021/09/14 00:59:35;;;;;;;8.00;7.20;;;16.90;70.70;;;16.71;55.81;95111.50;5012351;28;20268;-79
2021/09/14 01:02:03;;;;;;;7.57;6.88;;;16.90;71.00;;;16.73;56.33;95114.72;5010877;28;20578;-79
2021/09/14 01:04:31;;;;;;;9.45;6.55;;;16.90;71.10;;;16.70;56.19;95107.25;4996119;28;20193;-79
2021/09/14 01:07:02;;;;;;;7.40;6.70;;;16.90;71.10;;;16.76;56.03;95111.63;4995969;28;20215;-78
2021/09/14 01:09:32;;;;;;;7.10;6.40;;;16.90;71.50;;;16.79;56.28;95107.72;5021004;28;20192;-78
2021/09/14 01:11:59;;;;;;;8.35;7.15;;;16.90;71.50;;;16.77;55.95;95102.66;5004432;28;21084;-77
2021/09/14 01:14:27;;;;;;;7.57;6.38;;;16.90;72.30;;;16.84;55.83;95115.78;5000077;28;20292;-77
2021/09/14 01:16:57;;;;;;;8.65;7.70;;;16.90;71.30;;;16.83;56.07;95102.78;5022015;28;20426;-78
2021/09/14 01:19:26;;;;;;;7.85;7.00;;;16.90;71.40;;;16.86;56.08;95116.38;5022560;28;20194;-79
2021/09/14 01:21:54;;;;;;;8.80;6.95;;;17.00;71.40;;;16.83;56.46;95100.94;4994617;28;20581;-77
2021/09/14 01:24:21;;;;;;;7.50;6.80;;;16.90;71.30;;;16.88;56.39;95118.78;5022102;28;20733;-78
2021/09/14 01:27:00;;;;;;;8.18;7.38;;;17.00;71.40;;;16.87;55.99;95104.75;5001339;28;20236;-79
2021/09/14 01:32:23;;;;;;;9.23;7.50;;;16.90;71.40;;;16.88;56.24;95111.69;5005407;28;20208;-78
2021/09/14 01:34:52;;;;;;;7.55;6.65;;;16.90;71.40;;;16.89;56.00;95113.25;4988071;28;20358;-78
2021/09/14 01:37:20;;;;;;;7.80;6.95;;;16.90;71.40;;;16.87;56.07;95109.22;4995481;28;20235;-78
2021/09/14 01:39:48;;;;;;;9.18;7.70;;;17.00;71.40;;;16.85;56.17;95112.13;5017814;28;20192;-78
2021/09/14 01:42:15;;;;;;;7.15;6.45;;;17.00;71.50;;;16.83;56.27;95105.44;5023874;28;20322;-78
2021/09/14 01:44:42;;;;;;;8.65;7.72;;;16.90;71.50;;;16.80;56.30;95107.47;5000498;28;20200;-78
2021/09/14 01:47:12;;;;;;;8.35;7.47;;;16.90;71.50;;;16.77;56.36;95105.31;5007829;28;20247;-78
2021/09/14 01:49:39;;;;;;;7.95;6.97;;;16.90;71.50;;;16.74;56.73;95104.94;5004143;28;20184;-78
2021/09/14 01:52:07;;;;;;;8.23;7.43;;;16.90;71.60;;;16.71;56.43;95106.22;5005027;28;20228;-78
2021/09/14 01:54:34;;;;;;;10.18;7.72;;;16.90;71.60;;;16.67;56.39;95101.59;5004565;28;20287;-77
2021/09/14 01:57:01;;;;;;;8.18;7.38;;;16.90;71.70;;;16.65;56.80;95109.75;5009530;28;20773;-77
2021/09/14 01:59:30;;;;;;;8.73;7.82;;;16.80;71.60;;;16.63;56.77;95102.03;4992985;28;20193;-78
2021/09/14 02:02:51;;;;;;;9.68;8.02;;;16.80;71.70;;;16.62;56.75;95099.59;5003456;28;20694;-79
2021/09/14 02:30:14;;;;;;;10.75;8.90;;;16.70;72.60;;;16.64;57.42;95108.13;4992622;28;20223;-79
2021/09/14 02:38:25;;;;;;;9.35;7.82;;;16.80;72.60;;;16.68;57.32;95111.16;5000221;28;20631;-79
2021/09/14 02:59:40;;;;;;;9.75;8.23;;;16.70;72.50;;;16.42;57.55;95115.75;5033631;28;20211;-79
2021/09/14 03:02:09;;;;;;;9.13;8.18;;;16.80;72.60;;;16.38;57.60;95107.47;5038797;28;20228;-79
2021/09/14 03:04:36;;;;;;;10.02;8.23;;;16.70;72.60;;;16.34;57.48;95114.22;5010898;28;20192;-79
2021/09/14 03:07:04;;;;;;;9.60;8.55;;;16.60;72.50;;;16.30;57.48;95111.19;5033075;28;20564;-79
2021/09/14 03:09:35;;;;;;;10.90;9.73;;;16.50;72.60;;;16.24;57.92;95106.00;5033383;28;20197;-79
2021/09/14 03:12:06;;;;;;;10.55;9.02;;;16.60;72.80;;;16.24;58.07;95120.03;5025653;28;20213;-79
2021/09/14 03:14:35;;;;;;;9.13;8.23;;;16.50;72.80;;;16.20;58.11;95113.59;5013366;28;20213;-78
2021/09/14 03:17:03;;;;;;;10.68;9.30;;;16.50;72.90;;;16.18;58.23;95107.69;5017418;28;20731;-79
2021/09/14 03:19:31;;;;;;;10.73;9.57;;;16.40;72.80;;;16.15;57.84;95113.44;5013724;28;20690;-77
2021/09/14 03:22:00;;;;;;;10.88;9.68;;;16.40;72.90;;;16.11;57.98;95115.72;5009398;28;20228;-79
2021/09/14 03:24:28;;;;;;;10.13;8.77;;;16.40;73.00;;;16.09;57.94;95106.41;5009937;28;20192;-77
2021/09/14 03:26:58;;;;;;;11.80;9.13;;;16.30;72.90;;;16.05;58.28;95113.97;5014462;28;20235;-79
2021/09/14 03:29:27;;;;;;;9.93;8.57;;;16.30;72.80;;;16.00;58.11;95106.69;4996427;28;20235;-78
2021/09/14 03:31:55;;;;;;;11.10;8.25;;;16.30;73.00;;;15.95;57.76;95103.06;5024062;28;20578;-79
2021/09/14 03:34:22;;;;;;;9.85;8.38;;;16.20;73.00;;;15.92;57.84;95101.69;5028434;28;20658;-79
2021/09/14 03:36:52;;;;;;;9.40;8.25;;;16.20;73.00;;;15.90;57.96;95101.09;5012877;28;20704;-78
2021/09/14 03:39:19;;;;;;;9.90;8.30;;;16.20;73.00;;;15.86;58.37;95102.56;5005156;28;20203;-78
2021/09/14 03:41:49;;;;;;;9.98;8.25;;;16.10;73.00;;;15.82;58.25;95102.19;5022169;28;20234;-79
2021/09/14 03:44:17;;;;;;;9.77;8.52;;;16.10;73.00;;;15.80;58.22;95112.16;5003983;28;20201;-78
2021/09/14 03:46:44;;;;;;;9.73;8.50;;;16.10;73.20;;;15.77;58.52;95107.31;5032525;28;20234;-77
2021/09/14 03:49:13;;;;;;;9.13;8.13;;;16.00;73.10;;;15.74;58.29;95109.59;5014934;28;20200;-78
2021/09/14 03:51:41;;;;;;;9.52;8.52;;;16.00;73.30;;;15.72;58.40;95112.47;5030302;28;20220;-79
2021/09/14 03:54:09;;;;;;;9.20;8.25;;;16.00;73.30;;;15.67;58.79;95110.47;5030621;28;20196;-79
2021/09/14 03:56:37;;;;;;;9.68;8.75;;;15.90;73.30;;;15.64;58.74;95108.25;5010136;28;20230;-79
2021/09/14 03:59:05;;;;;;;12.00;8.52;;;15.90;73.30;;;15.60;58.64;95115.00;4996523;28;20205;-79
2021/09/14 04:01:39;;;;;;;10.57;8.93;;;15.90;73.40;;;15.57;58.90;95117.28;4996739;28;20235;-78
2021/09/14 04:04:18;;;;;;;10.20;8.68;;;15.90;73.50;;;15.52;58.62;95113.44;5012447;28;20197;-78
2021/09/14 04:06:56;;;;;;;10.15;9.05;;;15.80;73.40;;;15.48;58.89;95117.53;4999496;28;20712;-78
2021/09/14 04:09:24;;;;;;;11.02;9.30;;;15.80;73.40;;;15.46;59.10;95124.06;5017547;28;20552;-79
2021/09/14 04:11:53;;;;;;;9.95;8.68;;;15.70;73.30;;;15.41;58.84;95118.63;5018412;28;20220;-78
2021/09/14 04:14:28;;;;;;;11.85;9.32;;;15.70;73.40;;;15.36;58.93;95112.16;5005405;28;20295;-78
2021/09/14 04:16:57;;;;;;;9.77;8.77;;;15.70;73.50;;;15.32;58.96;95116.25;5008293;28;20235;-76
2021/09/14 04:19:26;;;;;;;9.80;8.80;;;15.70;73.60;;;15.27;58.85;95117.94;5010494;28;20201;-78
2021/09/14 04:21:55;;;;;;;11.45;9.50;;;15.60;73.50;;;15.26;59.20;95121.59;5011942;28;20240;-78
2021/09/14 04:24:28;;;;;;;11.23;8.98;;;15.60;73.60;;;15.22;59.18;95131.78;5014035;28;20189;-78
2021/09/14 04:26:56;;;;;;;11.20;9.32;;;15.50;73.60;;;15.19;59.06;95127.75;5008351;28;20279;-78
2021/09/14 04:29:24;;;;;;;12.18;10.50;;;15.50;73.80;;;15.16;59.47;95125.53;5001919;28;20193;-78
2021/09/14 04:31:51;;;;;;;10.85;9.75;;;15.50;74.00;;;15.14;59.33;95132.88;5011095;28;20234;-78
2021/09/14 04:34:18;;;;;;;11.00;9.60;;;15.50;74.00;;;15.11;59.25;95133.31;5014513;28;20290;-78
2021/09/14 04:36:47;;;;;;;11.50;9.93;;;15.50;74.10;;;15.09;59.51;95124.78;5047423;28;20223;-78
2021/09/14 04:39:15;;;;;;;11.30;9.98;;;15.40;74.20;;;15.08;59.81;95132.94;5023518;28;20192;-78
2021/09/14 04:41:47;;;;;;;10.90;9.60;;;15.50;74.40;;;15.05;59.25;95134.97;5012786;28;20769;-76
2021/09/14 04:44:14;;;;;;;11.93;10.13;;;15.40;74.40;;;15.04;59.80;95132.53;4995697;28;20736;-78
2021/09/14 04:46:42;;;;;;;11.63;10.27;;;15.30;74.40;;;15.02;59.73;95134.59;5017597;28;20219;-79
2021/09/14 04:49:09;;;;;;;12.35;11.05;;;15.30;74.40;;;15.00;59.69;95131.34;5026759;28;20207;-79
2021/09/14 04:51:40;;;;;;;21.80;10.82;;;15.30;74.50;;;15.01;59.92;95131.16;5011910;28;20311;-79
2021/09/14 04:54:07;;;;;;;12.23;10.63;;;15.30;74.60;;;15.01;60.04;95132.97;5014154;28;20573;-78
2021/09/14 04:56:35;;;;;;;12.57;11.23;;;15.30;74.70;;;14.99;59.99;95127.91;5002163;28;20239;-78
2021/09/14 04:59:03;;;;;;;13.65;10.98;;;15.20;74.80;;;15.01;60.29;95130.31;5009981;28;20215;-77
2021/09/14 05:01:30;;;;;;;12.43;10.57;;;15.20;74.80;;;15.02;59.91;95129.28;4989334;28;20281;-78
2021/09/14 05:03:57;;;;;;;12.35;10.45;;;15.30;75.00;;;15.05;60.14;95131.53;5010634;28;20205;-78
2021/09/14 05:06:28;;;;;;;12.20;10.63;;;15.30;75.10;;;15.05;59.75;95129.69;5011410;28;20225;-76
2021/09/14 05:08:57;;;;;;;12.77;10.90;;;15.20;75.00;;;15.08;60.34;95130.28;5011536;28;20235;-78
2021/09/14 05:11:24;;;;;;;11.63;10.43;;;15.30;75.20;;;15.10;60.12;95131.69;5010997;28;20244;-78
2021/09/14 05:13:52;;;;;;;12.30;10.38;;;15.30;75.20;;;15.12;60.14;95126.97;5013167;28;20189;-78
2021/09/14 05:16:19;;;;;;;13.77;11.27;;;15.30;75.20;;;15.14;60.18;95127.56;4994049;28;20220;-79
2021/09/14 05:19:30;;;;;;;14.18;11.82;;;15.40;75.40;;;15.16;60.25;95133.47;5018153;28;20183;-79
2021/09/14 05:21:59;;;;;;;13.02;10.95;;;15.40;75.40;;;15.18;60.46;95123.50;5031164;28;20570;-78
2021/09/14 05:24:28;;;;;;;14.10;11.10;;;15.30;75.40;;;15.23;60.49;95132.59;5011628;28;20661;-78
2021/09/14 05:26:57;;;;;;;14.15;10.73;;;15.30;75.50;;;15.27;60.36;95131.97;5010334;28;22028;-78
2021/09/14 05:29:25;;;;;;;13.93;11.40;;;15.40;75.70;;;15.30;60.28;95131.50;4993728;28;20619;-78
2021/09/14 05:31:54;;;;;;;13.60;11.15;;;15.40;75.70;;;15.34;60.52;95126.59;5020770;28;20258;-78
2021/09/14 05:34:23;;;;;;;12.70;11.10;;;15.40;75.90;;;15.38;60.38;95127.81;4994671;28;20200;-78
2021/09/14 05:36:52;;;;;;;12.45;11.05;;;15.40;75.90;;;15.42;60.53;95122.91;4981853;28;20496;-78
2021/09/14 05:39:21;;;;;;;13.05;11.43;;;15.50;76.00;;;15.47;60.40;95123.06;5025341;28;20204;-78
2021/09/14 05:41:50;;;;;;;13.68;11.15;;;15.60;76.00;;;15.48;60.66;95122.84;5013212;28;20220;-78
2021/09/14 05:44:17;;;;;;;12.88;11.52;;;15.60;75.90;;;15.55;60.54;95124.59;5018418;28;20198;-78
2021/09/14 05:46:45;;;;;;;14.30;12.02;;;15.60;76.00;;;15.58;60.27;95129.47;5009204;28;20223;-77
2021/09/14 05:49:12;;;;;;;13.20;11.70;;;15.70;76.00;;;15.62;60.35;95120.84;5041725;28;20822;-78
2021/09/14 05:51:40;;;;;;;12.63;11.05;;;15.70;76.10;;;15.66;60.48;95123.88;5015742;28;20620;-78
2021/09/14 05:54:08;;;;;;;13.73;11.68;;;15.70;76.10;;;15.72;60.49;95125.69;5030244;28;20208;-78
2021/09/14 05:56:37;;;;;;;13.35;11.25;;;15.70;76.10;;;15.75;60.60;95119.94;5017618;28;20232;-78
2021/09/14 05:59:10;;;;;;;13.55;11.65;;;15.80;76.10;;;15.79;60.70;95123.75;5029102;28;20219;-79
2021/09/14 06:01:38;;;;;;;15.68;12.23;;;15.80;76.20;;;15.85;60.48;95119.47;5015762;28;20215;-78
2021/09/14 06:04:06;;;;;;;13.40;11.77;;;15.80;76.30;;;15.89;60.83;95119.81;5015994;28;20258;-79
2021/09/14 06:06:35;;;;;;;15.50;12.63;;;15.90;76.50;;;16.00;60.86;95124.38;5001278;28;20599;-78
2021/09/14 06:09:02;;;;;;;14.57;11.88;;;16.00;76.60;;;16.07;60.87;95129.63;5017757;28;20234;-78
2021/09/14 06:11:33;;;;;;;14.65;12.02;;;15.90;76.60;;;16.13;60.53;95121.59;5017992;28;20809;-78
2021/09/14 06:14:02;;;;;;;15.63;12.82;;;16.00;76.70;;;16.24;61.22;95127.19;5018451;28;20203;-78
2021/09/14 06:16:30;;;;;;;14.95;13.13;;;16.20;76.90;;;16.31;60.92;95127.91;5017718;28;20224;-78
2021/09/14 06:18:58;;;;;;;15.80;13.73;;;16.20;76.90;;;16.44;60.87;95125.09;5017335;28;20220;-78
2021/09/14 06:21:29;;;;;;;15.20;12.38;;;16.30;77.10;;;16.59;60.98;95122.03;5018051;28;20224;-79
2021/09/14 06:23:56;;;;;;;14.40;11.98;;;16.30;77.20;;;16.71;60.88;95127.41;5017802;28;20196;-79
2021/09/14 06:26:24;;;;;;;14.25;12.30;;;16.50;77.40;;;16.87;60.77;95133.06;5017606;28;20220;-79
2021/09/14 06:28:51;;;;;;;14.00;12.35;;;16.60;77.50;;;17.03;61.13;95135.13;5033854;28;20617;-79
2021/09/14 06:31:20;;;;;;;13.85;12.35;;;16.70;77.60;;;17.18;60.82;95132.03;5033890;28;20274;-79
2021/09/14 06:33:47;;;;;;;19.05;14.68;;;16.80;77.80;;;17.34;60.71;95133.22;5018025;28;20215;-79
2021/09/14 06:36:14;;;;;;;17.73;14.35;;;16.90;77.80;;;17.49;60.85;95131.97;5017307;28;20228;-78
2021/09/14 06:38:43;;;;;;;15.25;12.60;;;17.10;77.90;;;17.62;60.80;95138.91;5017690;28;20716;-79
2021/09/14 06:41:11;;;;;;;14.38;12.80;;;17.20;77.80;;;17.75;60.63;95133.38;5033689;28;20231;-79
2021/09/14 06:43:41;;;;;;;15.60;12.63;;;17.30;77.60;;;17.88;60.56;95134.94;5002205;28;20208;-79
2021/09/14 06:46:20;;;;;;;14.13;12.48;;;17.40;77.50;;;17.95;60.36;95129.56;5033802;28;20231;-79
2021/09/14 06:48:55;;;;;;;14.00;12.50;;;17.60;77.40;;;18.08;60.49;95137.28;5018683;28;20294;-79
2021/09/14 06:51:23;;;;;;;14.55;12.45;;;17.70;77.40;;;18.16;60.61;95138.75;5000238;28;20224;-79
2021/09/14 06:53:50;;;;;;;16.70;13.27;;;17.80;77.30;;;18.26;60.36;95138.16;5033599;28;20192;-79
2021/09/14 06:56:17;;;;;;;14.02;12.52;;;17.90;77.10;;;18.32;59.95;95137.22;5017122;28;20266;-79
2021/09/14 06:58:46;;;;;;;15.07;12.98;;;18.00;77.00;;;18.40;60.08;95136.84;5017375;28;20223;-80
2021/09/14 07:01:21;;;;;;;15.00;13.40;;;18.10;77.10;;;18.47;60.11;95131.41;5033399;28;20274;-79
2021/09/14 07:03:49;;;;;;;15.18;11.77;;;18.20;77.10;;;18.54;60.29;95132.91;5033636;28;20188;-79
2021/09/14 07:06:17;;;;;;;13.82;12.10;;;18.20;76.90;;;18.61;60.13;95138.06;5033374;28;20215;-79
2021/09/14 07:08:44;;;;;;;18.35;11.82;;;18.30;76.70;;;18.67;60.05;95134.44;5033181;28;20231;-79
2021/09/14 07:11:12;;;;;;;14.13;12.48;;;18.40;76.80;;;18.75;60.01;95135.13;5016907;28;20208;-79
2021/09/14 07:13:39;;;;;;;14.43;12.43;;;18.50;76.70;;;18.76;59.77;95126.94;5000772;28;20328;-79
2021/09/14 07:16:07;;;;;;;14.77;12.20;;;18.50;76.60;;;18.87;59.38;95138.53;5000367;28;20208;-79
2021/09/14 07:18:38;;;;;;;15.65;13.38;;;18.60;76.60;;;18.92;59.94;95143.16;5032849;28;20220;-79
2021/09/14 07:21:06;;;;;;;14.13;12.23;;;18.60;76.50;;;18.97;59.39;95138.75;5033473;28;20216;-79
2021/09/14 07:23:34;;;;;;;14.13;12.30;;;18.70;76.50;;;19.03;59.31;95140.44;5016575;28;20659;-79
2021/09/14 07:26:02;;;;;;;16.65;14.38;;;18.70;76.40;;;19.14;59.55;95141.44;5000306;28;20230;-79
2021/09/14 07:28:29;;;;;;;24.15;19.48;;;18.80;76.60;;;19.22;59.41;95144.75;5032911;28;20220;-79
2021/09/14 07:31:02;;;;;;;18.23;16.02;;;18.80;76.50;;;19.29;59.68;95142.75;5032768;28;20228;-79
2021/09/14 07:33:29;;;;;;;15.38;13.75;;;19.00;76.70;;;19.39;59.51;95142.09;5032879;28;20291;-79
2021/09/14 07:35:56;;;;;;;19.45;14.93;;;19.00;76.60;;;19.47;59.86;95145.16;5032645;28;20232;-80
2021/09/14 07:38:24;;;;;;;16.20;14.43;;;19.10;76.60;;;19.54;59.62;95139.66;5000421;28;20224;-80
2021/09/14 07:40:51;;;;;;;14.95;13.15;;;19.20;76.40;;;19.60;59.20;95138.69;5032729;28;20242;-80
2021/09/14 07:43:18;;;;;;;16.65;13.07;;;19.20;76.40;;;19.67;59.39;95130.56;5000092;28;20250;-80
2021/09/14 07:45:45;;;;;;;15.52;13.13;;;19.30;76.40;;;19.74;59.40;95133.84;5016061;28;20227;-79
2021/09/14 07:48:12;;;;;;;14.95;13.27;;;19.30;76.30;;;19.82;58.95;95140.59;5016212;28;20202;-79
2021/09/14 07:50:39;;;;;;;17.85;14.27;;;19.40;76.50;;;19.88;59.53;95137.00;5032503;28;20216;-80
2021/09/14 07:53:07;;;;;;;15.70;13.13;;;19.50;76.50;;;20.00;58.96;95142.22;5032522;28;20212;-78
2021/09/14 07:55:35;;;;;;;16.55;13.60;;;19.60;76.50;;;20.10;58.83;95138.88;5033490;28;20231;-80
2021/09/14 07:58:02;;;;;;;14.75;12.98;;;19.60;76.50;;;20.18;59.45;95129.66;5032303;28;20310;-79
2021/09/14 08:00:30;;;;;;;14.88;13.00;;;19.70;76.50;;;20.26;59.04;95129.25;4999771;28;20318;-80
2021/09/14 08:02:59;;;;;;;18.63;13.98;;;19.80;76.50;;;20.37;58.69;95138.94;5015746;28;20250;-79
2021/09/14 08:05:28;;;;;;;19.30;14.23;;;19.90;76.60;;;20.44;59.02;95136.91;5032093;28;20231;-80
2021/09/14 08:07:55;;;;;;;17.95;14.68;;;20.00;76.40;;;20.57;58.72;95140.28;5015719;28;20223;-80
2021/09/14 08:10:22;;;;;;;19.25;14.80;;;20.10;76.40;;;20.66;58.61;95143.31;5015543;28;20224;-80
2021/09/14 08:12:49;;;;;;;14.95;13.25;;;20.20;77.10;;;20.74;58.44;95146.34;5015623;28;20206;-80
2021/09/14 08:15:16;;;;;;;15.82;13.43;;;20.20;76.20;;;20.84;58.92;95142.19;5015619;28;20254;-80
2021/09/14 08:17:43;;;;;;;15.30;12.85;;;20.30;76.10;;;20.93;58.66;95146.81;4999280;28;20645;-80
2021/09/14 08:20:11;;;;;;;14.23;12.75;;;20.40;76.20;;;20.99;58.71;95139.66;5015657;28;20205;-80
2021/09/14 08:22:38;;;;;;;14.07;11.88;;;20.50;76.20;;;21.13;58.97;95144.59;5031940;28;20188;-80
2021/09/14 08:25:07;;;;;;;14.68;13.00;;;20.60;76.00;;;21.21;58.27;95146.81;5031699;28;20717;-79
2021/09/14 08:27:34;;;;;;;13.20;11.65;;;20.70;76.10;;;21.32;58.22;95137.81;5015149;28;20206;-80
2021/09/14 08:30:04;;;;;;;13.30;11.90;;;20.70;75.90;;;21.44;58.23;95141.13;5015172;28;20208;-80
2021/09/14 08:32:31;;;;;;;13.27;11.70;;;20.80;75.90;;;21.55;58.05;95142.00;5032247;28;20233;-80
2021/09/14 08:34:59;;;;;;;11.88;10.65;;;21.00;75.70;;;21.63;57.58;95139.97;5015670;28;20646;-80
2021/09/14 08:37:26;;;;;;;13.75;11.40;;;21.10;75.60;;;21.73;57.37;95146.19;5015563;28;20212;-79
2021/09/14 08:39:54;;;;;;;13.63;11.45;;;21.20;75.60;;;21.82;57.31;95148.38;5015127;28;20585;-80
2021/09/14 08:42:22;;;;;;;12.73;11.43;;;21.20;75.50;;;21.91;57.60;95149.50;5015119;28;20202;-80
2021/09/14 08:44:51;;;;;;;11.38;10.18;;;21.40;75.40;;;22.02;57.60;95148.50;5015308;28;20199;-80
2021/09/14 08:47:22;;;;;;;12.75;11.40;;;21.40;75.40;;;22.11;56.77;95148.03;5031551;28;20223;-79
2021/09/14 08:49:49;;;;;;;13.00;11.07;;;21.60;75.10;;;22.22;56.98;95145.13;4998815;28;20595;-80
2021/09/14 08:52:17;;;;;;;11.95;10.75;;;21.60;75.20;;;22.33;57.13;95145.19;4998641;28;20305;-79
2021/09/14 08:54:44;;;;;;;12.48;11.18;;;21.70;75.10;;;22.43;56.92;95141.78;5015017;28;20203;-81
2021/09/14 08:57:11;;;;;;;12.45;11.15;;;21.80;75.00;;;22.53;56.76;95142.63;5031283;28;20578;-80
2021/09/14 08:59:47;;;;;;;11.43;9.77;;;21.90;74.80;;;22.64;56.63;95140.81;5014754;28;20330;-81
2021/09/14 09:02:16;;;;;;;11.00;9.90;;;22.00;74.40;;;22.74;56.22;95133.84;5031212;28;20227;-80
2021/09/14 09:05:06;;;;;;;11.50;10.38;;;22.10;74.60;;;22.81;56.20;95137.91;5031282;28;20228;-80
2021/09/14 09:07:35;;;;;;;11.02;9.32;;;22.20;74.20;;;22.91;55.72;95136.31;5014833;28;20269;-80
2021/09/14 09:10:15;;;;;;;10.60;9.52;;;22.30;74.30;;;22.97;55.75;95132.56;5014745;28;20210;-80
2021/09/14 09:12:46;;;;;;;10.70;9.60;;;22.40;73.90;;;23.06;55.72;95138.19;5031276;28;20217;-80
2021/09/14 09:15:29;;;;;;;10.80;9.70;;;22.50;73.80;;;23.11;55.36;95141.69;5030367;28;20297;-80
2021/09/14 09:18:09;;;;;;;12.15;9.00;;;22.50;73.60;;;23.20;55.31;95143.88;5014766;28;20211;-80
2021/09/14 09:20:40;;;;;;;10.27;9.23;;;22.60;73.50;;;23.25;55.41;95133.97;5031277;28;20259;-80
2021/09/14 09:23:22;;;;;;;9.45;8.52;;;22.70;73.50;;;23.36;55.53;95132.09;5031264;28;20196;-80
2021/09/14 09:25:50;;;;;;;9.68;8.68;;;22.80;73.70;;;23.47;55.33;95138.25;5031198;28;20221;-79
2021/09/14 09:28:22;;;;;;;10.65;8.57;;;22.80;73.60;;;23.57;54.96;95140.97;5031046;28;20231;-80
2021/09/14 09:31:00;;;;;;;9.07;8.18;;;22.90;73.40;;;23.67;54.80;95140.16;5014415;28;20220;-79
2021/09/14 09:33:31;;;;;;;10.63;9.13;;;23.00;73.20;;;23.78;54.85;95140.94;5011712;28;20653;-80
2021/09/14 09:36:05;;;;;;;10.55;9.45;;;23.10;73.20;;;23.86;54.69;95131.53;5026939;28;20237;-80
2021/09/14 09:38:50;;;;;;;10.45;9.35;;;23.20;73.20;;;23.94;54.68;95134.50;5029893;28;20301;-80
2021/09/14 09:41:19;;;;;;;9.93;8.93;;;23.30;73.00;;;24.05;54.63;95124.56;5017971;28;20260;-79
2021/09/14 09:43:47;;;;;;;11.23;9.35;;;23.30;72.90;;;24.13;53.90;95133.91;5021973;28;20197;-79
2021/09/14 09:46:21;;;;;;;9.32;8.43;;;23.50;72.70;;;24.18;54.20;95128.56;5010084;28;20269;-79
2021/09/14 09:48:49;;;;;;;10.40;9.32;;;23.50;73.00;;;24.30;54.11;95133.59;5011787;28;20666;-79
2021/09/14 09:51:17;;;;;;;8.82;7.93;;;23.60;72.70;;;24.39;53.92;95129.28;4996211;28;20300;-80
2021/09/14 09:53:45;;;;;;;9.45;8.45;;;23.70;72.50;;;24.44;53.78;95137.31;5020066;28;20662;-80
2021/09/14 09:56:13;;;;;;;9.73;8.82;;;23.80;72.60;;;24.52;53.64;95127.09;4994795;28;20285;-80
2021/09/14 09:58:40;;;;;;;9.95;9.00;;;23.80;72.30;;;24.59;53.72;95124.91;5012555;28;20213;-80
2021/09/14 10:01:21;;;;;;;10.50;8.90;;;23.90;72.20;;;24.66;53.47;95120.06;4994653;28;20208;-80
2021/09/14 10:04:21;;;;;;;9.35;8.45;;;24.00;71.90;;;24.74;53.62;95118.69;5028266;28;20295;-80
2021/09/14 10:06:53;;;;;;;9.32;8.10;;;24.10;72.20;;;24.83;53.50;95124.25;5030411;28;20254;-79
2021/09/14 10:09:21;;;;;;;9.93;8.93;;;24.10;71.80;;;24.91;53.38;95127.19;5014186;28;20249;-80
2021/09/14 10:11:55;;;;;;;8.38;7.57;;;24.20;72.10;;;24.97;53.15;95113.72;5014079;28;20257;-80
2021/09/14 10:14:23;;;;;;;8.60;7.78;;;24.30;71.50;;;25.06;53.39;95115.56;5023075;28;20187;-80
2021/09/14 10:16:51;;;;;;;8.23;7.45;;;24.40;71.90;;;25.13;53.18;95111.75;5011981;28;20585;-79
2021/09/14 10:19:31;;;;;;;9.90;8.23;;;24.50;71.80;;;25.19;52.60;95110.63;5013014;28;20314;-80
2021/09/14 10:22:10;;;;;;;9.25;8.35;;;24.50;71.10;;;25.27;52.80;95107.34;5030626;28;20223;-80
2021/09/14 10:24:52;;;;;;;8.23;7.43;;;24.60;71.30;;;25.37;52.56;95109.97;5017465;28;20200;-80
2021/09/14 10:27:19;;;;;;;7.75;7.00;;;24.70;71.20;;;25.49;52.13;95106.94;4997913;28;20228;-80
2021/09/14 10:29:57;;;;;;;8.93;8.02;;;24.70;71.10;;;25.60;51.87;95109.50;5014518;28;20203;-80
2021/09/14 10:32:24;;;;;;;8.00;7.20;;;24.90;70.50;;;25.66;51.88;95098.44;5013893;28;20267;-79
2021/09/14 10:34:54;;;;;;;10.10;7.53;;;24.90;70.60;;;25.77;50.93;95095.66;5013307;28;20299;-78
2021/09/14 10:37:29;;;;;;;8.02;7.22;;;25.00;70.60;;;25.87;51.41;95099.03;5013481;28;20243;-79
2021/09/14 10:40:10;;;;;;;9.18;7.47;;;25.10;70.60;;;25.98;51.51;95102.44;5023898;28;20220;-78
2021/09/14 10:42:42;;;;;;;7.20;6.60;;;25.20;70.10;;;26.08;51.41;95095.38;5014385;28;21114;-78
2021/09/14 10:45:20;;;;;;;7.65;6.88;;;25.30;70.20;;;26.17;51.25;95093.66;5032660;28;20242;-78
2021/09/14 10:47:50;;;;;;;7.63;6.88;;;25.40;70.00;;;26.25;50.81;95089.53;4996889;28;20206;-78
2021/09/14 10:50:32;;;;;;;7.07;6.38;;;25.50;70.00;;;26.40;50.81;95091.25;5015100;28;20230;-78
2021/09/14 10:53:03;;;;;;;6.97;6.38;;;25.60;69.40;;;26.53;50.66;95094.00;5013158;28;20202;-79
2021/09/14 10:55:31;;;;;;;6.78;6.15;;;25.70;69.50;;;26.68;50.10;95092.22;5015071;28;20323;-78
2021/09/14 10:58:01;;;;;;;7.93;7.13;;;25.80;69.70;;;26.89;50.31;95094.66;5017142;28;20210;-78
2021/09/14 11:00:33;;;;;;;10.20;7.30;;;26.00;69.60;;;27.07;49.88;95085.75;5013667;28;20332;-78
2021/09/14 11:03:06;;;;;;;7.43;6.25;;;26.10;69.00;;;27.26;49.49;95093.03;5013724;28;20234;-79
2021/09/14 11:05:37;;;;;;;7.25;6.65;;;26.30;68.60;;;27.38;49.00;95092.56;4997394;28;20211;-78
2021/09/14 11:08:09;;;;;;;6.57;5.97;;;26.40;68.20;;;27.38;49.56;95077.22;5030043;28;20245;-78
2021/09/14 11:10:39;;;;;;;7.25;6.55;;;26.60;68.30;;;27.42;48.41;95086.31;5000494;28;20255;-79
2021/09/14 11:13:10;;;;;;;6.90;6.20;;;26.70;68.00;;;27.47;47.97;95082.75;5016805;28;20202;-79
2021/09/14 11:15:37;;;;;;;6.10;5.45;;;26.80;67.60;;;27.61;48.71;95080.88;5015760;28;20237;-79